Terminal Aerodrome Forecast
Issued by NWS

Home | Current Version | Previous Version | Text Only | Print | Product List | Glossary On
Versions: 1 2 3 4 5 6 7 8 9 10 11 12 13 14 15 16 17 18 19 20 21 22 23 24 25 26 27 28 29 30 31 32 33 34 35 36 37 38 39 40 41 42 43 44 45 46 47 48 49 50
000
FTUS44 KBMX 200530
TAFASN
TAF
KASN 200530Z 2006/2106 21005KT P6SM SCT060 BKN250
     FM200800 22009KT P6SM VCTS FEW006 BKN050CB
      TEMPO 2008/2010 6SM -TSRA BKN040CB
     FM201000 22008KT 6SM -SHRA BKN050 OVC120
     FM201400 22008KT P6SM BKN050 OVC250
     FM201700 25012KT P6SM BKN050 PROB30 2020/2024 4SM TSRA
      BKN040CB=

USA.gov is the U.S. government's official web portal to all federal, state and local government web resources and services.